| time (UTC) | temp F | wind direction | speed MPH | gust MPH | rain 1hr in | rain 24hr in | rain mn in | humidity % | barometer mb |
| 20260504220703 | 77 | 330 | 5.0 | 10.0 | 0.00 | 0.00 | 0.00 | 32 | 1002.5 |
| 20260504220203 | 77 | 333 | 5.0 | 11.0 | 0.00 | 0.00 | 0.00 | 32 | 1002.3 |
| 20260504215703 | 77 | 299 | 5.0 | 11.0 | 0.00 | 0.00 | 0.00 | 32 | 1002.4 |
| 20260504215203 | 77 | 306 | 5.0 | 17.0 | 0.00 | 0.00 | 0.00 | 32 | 1002.2 |
| 20260504214704 | 78 | 333 | 6.0 | 17.0 | 0.00 | 0.00 | 0.00 | 31 | 1002.2 |
| 20260504214204 | 79 | 336 | 6.0 | 15.0 | 0.00 | 0.00 | 0.00 | 31 | 1002.2 |
| 20260504213935 | 80 | 325 | 6.0 | 12.0 | 0.00 | 0.00 | 0.00 | 31 | 1002.1 |
| 20260504213203 | 80 | 306 | 5.0 | 12.0 | 0.00 | 0.00 | 0.00 | 31 | 1002.2 |
| 20260504212703 | 81 | 47 | 6.0 | 16.0 | 0.00 | 0.00 | 0.00 | 33 | 1002.1 |
| 20260504212204 | 80 | 282 | 6.0 | 16.0 | 0.00 | 0.00 | 0.00 | 32 | 1001.9 |
| 20260504211703 | 81 | 326 | 5.0 | 12.0 | 0.00 | 0.00 | 0.00 | 33 | 1001.9 |
| 20260504211434 | 81 | 2 | 4.0 | 12.0 | 0.00 | 0.00 | 0.00 | 34 | 1001.9 |
| 20260504210704 | 81 | 38 | 5.0 | 11.0 | 0.00 | 0.00 | 0.00 | 35 | 1001.9 |
| 20260504210203 | 81 | 330 | 5.0 | 13.0 | 0.00 | 0.00 | 0.00 | 34 | 1001.8 |
| 20260504205654 | 80 | 325 | 5.0 | 13.0 | 0.00 | 0.00 | 0.00 | 36 | 1002.1 |
| 20260504205149 | 80 | 351 | 5.0 | 12.0 | 0.00 | 0.00 | 0.00 | 34 | 1001.9 |
| 20260504204643 | 81 | 336 | 5.0 | 12.0 | 0.00 | 0.00 | 0.00 | 34 | 1001.9 |
| 20260504204137 | 81 | 343 | 5.0 | 11.0 | 0.00 | 0.00 | 0.00 | 33 | 1001.9 |
| 20260504203630 | 81 | 313 | 6.0 | 12.0 | 0.00 | 0.00 | 0.00 | 32 | 1001.8 |
| 20260504203131 | 82 | 315 | 5.0 | 12.0 | 0.00 | 0.00 | 0.00 | 31 | 1001.9 |
| 20260504202630 | 82 | 321 | 4.0 | 11.0 | 0.00 | 0.00 | 0.00 | 32 | 1001.9 |
| 20260504202132 | 82 | 14 | 4.0 | 11.0 | 0.00 | 0.00 | 0.00 | 31 | 1001.9 |
| 20260504201631 | 82 | 276 | 5.0 | 12.0 | 0.00 | 0.00 | 0.00 | 31 | 1001.9 |
| 20260504201131 | 82 | 316 | 5.0 | 12.0 | 0.00 | 0.00 | 0.00 | 30 | 1001.9 |
| 20260504200631 | 82 | 311 | 6.0 | 13.0 | 0.00 | 0.00 | 0.00 | 30 | 1001.8 |
| 20260504200402 | 82 | 350 | 5.0 | 13.0 | 0.00 | 0.00 | 0.00 | 29 | 1001.8 |
| 20260504195901 | 83 | 336 | 4.0 | 12.0 | 0.00 | 0.00 | 0.00 | 30 | 1001.8 |
| 20260504195131 | 83 | 326 | 5.0 | 11.0 | 0.00 | 0.00 | 0.00 | 30 | 1001.8 |
| 20260504194631 | 83 | 333 | 5.0 | 11.0 | 0.00 | 0.00 | 0.00 | 29 | 1001.8 |
| 20260504194132 | 83 | 296 | 5.0 | 11.0 | 0.00 | 0.00 | 0.00 | 31 | 1001.7 |
| 20260504193632 | 83 | 342 | 6.0 | 11.0 | 0.00 | 0.00 | 0.00 | 29 | 1001.7 |
| 20260504193132 | 83 | 355 | 5.0 | 11.0 | 0.00 | 0.00 | 0.00 | 28 | 1001.7 |
| 20260504192631 | 83 | 339 | 5.0 | 11.0 | 0.00 | 0.00 | 0.00 | 28 | 1001.7 |
| 20260504192131 | 82 | 326 | 6.0 | 12.0 | 0.00 | 0.00 | 0.00 | 29 | 1001.7 |
| 20260504191632 | 83 | 323 | 6.0 | 12.0 | 0.00 | 0.00 | 0.00 | 28 | 1001.8 |
| 20260504191129 | 83 | 334 | 6.0 | 16.0 | 0.00 | 0.00 | 0.00 | 27 | 1001.7 |
| 20260504190900 | 83 | 338 | 6.0 | 16.0 | 0.00 | 0.00 | 0.00 | 30 | 1001.7 |
| 20260504190130 | 83 | 346 | 6.0 | 16.0 | 0.00 | 0.00 | 0.00 | 28 | 1001.7 |
| 20260504185628 | 83 | 323 | 5.0 | 16.0 | 0.00 | 0.00 | 0.00 | 28 | 1001.7 |
| 20260504185129 | 83 | 338 | 5.0 | 11.0 | 0.00 | 0.00 | 0.00 | 27 | 1001.6 |
| 20260504184629 | 83 | 311 | 4.0 | 11.0 | 0.00 | 0.00 | 0.00 | 26 | 1001.7 |
| 20260504184129 | 83 | 295 | 5.0 | 10.0 | 0.00 | 0.00 | 0.00 | 26 | 1001.7 |
| 20260504183629 | 83 | 330 | 5.0 | 12.0 | 0.00 | 0.00 | 0.00 | 27 | 1001.8 |
| 20260504183129 | 83 | 232 | 4.0 | 12.0 | 0.00 | 0.00 | 0.00 | 26 | 1001.8 |
| 20260504182629 | 82 | 316 | 5.0 | 11.0 | 0.00 | 0.00 | 0.00 | 29 | 1001.7 |
| 20260504182400 | 82 | 319 | 5.0 | 11.0 | 0.00 | 0.00 | 0.00 | 26 | 1001.8 |
| 20260504181629 | 82 | 330 | 5.0 | 14.0 | 0.00 | 0.00 | 0.00 | 27 | 1001.8 |
| 20260504181359 | 82 | 11 | 5.0 | 14.0 | 0.00 | 0.00 | 0.00 | 26 | 1001.9 |
| 20260504180630 | 82 | 328 | 5.0 | 13.0 | 0.00 | 0.00 | 0.00 | 29 | 1001.8 |
| 20260504180129 | 82 | 46 | 5.0 | 13.0 | 0.00 | 0.00 | 0.00 | 26 | 1001.8 |
| 20260504175628 | 81 | 309 | 5.0 | 13.0 | 0.00 | 0.00 | 0.00 | 26 | 1001.8 |
| 20260504175400 | 81 | 311 | 5.0 | 14.0 | 0.00 | 0.00 | 0.00 | 27 | 1001.8 |
| 20260504174632 | 81 | 344 | 4.0 | 14.0 | 0.00 | 0.00 | 0.00 | 29 | 1001.8 |
| 20260504174131 | 81 | 303 | 4.0 | 12.0 | 0.00 | 0.00 | 0.00 | 30 | 1001.9 |
| 20260504173631 | 81 | 230 | 4.0 | 12.0 | 0.00 | 0.00 | 0.00 | 29 | 1002.1 |
| 20260504173131 | 81 | 315 | 4.0 | 12.0 | 0.00 | 0.00 | 0.00 | 30 | 1002.2 |
| 20260504172631 | 80 | 344 | 5.0 | 16.0 | 0.00 | 0.00 | 0.00 | 31 | 1002.3 |
| 20260504172131 | 80 | 246 | 5.0 | 16.0 | 0.00 | 0.00 | 0.00 | 30 | 1002.3 |
| 20260504171632 | 80 | 343 | 5.0 | 15.0 | 0.00 | 0.00 | 0.00 | 30 | 1002.3 |
| 20260504171132 | 80 | 333 | 5.0 | 15.0 | 0.00 | 0.00 | 0.00 | 31 | 1002.3 |
| 20260504170631 | 80 | 333 | 4.0 | 10.0 | 0.00 | 0.00 | 0.00 | 32 | 1002.4 |
| 20260504170131 | 79 | 335 | 3.0 | 9.0 | 0.00 | 0.00 | 0.00 | 35 | 1002.5 |
| 20260504160131 | 74 | 2 | 3.0 | 8.0 | 0.00 | 0.00 | 0.00 | 42 | 1002.6 |
| 20260504151131 | 68 | 232 | 3.0 | 7.0 | 0.00 | 0.00 | 0.00 | 51 | 1002.8 |
| 20260504150631 | 68 | 237 | 3.0 | 7.0 | 0.00 | 0.00 | 0.00 | 50 | 1002.8 |
| 20260504150402 | 68 | 282 | 2.0 | 5.0 | 0.00 | 0.00 | 0.00 | 51 | 1002.8 |
| 20260504141129 | 63 | 348 | 3.0 | 9.0 | 0.00 | 0.00 | 0.00 | 52 | 1002.8 |
| 20260504140630 | 63 | 342 | 2.0 | 5.0 | 0.00 | 0.00 | 0.00 | 54 | 1002.8 |
| 20260504140129 | 62 | 315 | 2.0 | 7.0 | 0.00 | 0.00 | 0.00 | 54 | 1002.7 |
| 20260504130629 | 58 | 333 | 1.0 | 3.0 | 0.00 | 0.00 | 0.00 | 60 | 1002.6 |
| 20260504130400 | 58 | 326 | 1.0 | 4.0 | 0.00 | 0.00 | 0.00 | 60 | 1002.5 |
| 20260504120129 | 49 | 233 | 0.0 | 0.0 | 0.00 | 0.00 | 0.00 | 72 | 1001.9 |
| 20260504110629 | 52 | 233 | 0.0 | 1.0 | 0.00 | 0.00 | 0.00 | 64 | 1001.9 |
| 20260504110129 | 53 | 233 | 0.0 | 1.0 | 0.00 | 0.00 | 0.00 | 62 | 1001.9 |
| 20260504100129 | 57 | 209 | 1.0 | 4.0 | 0.00 | 0.00 | 0.00 | 54 | 1002.3 |
| 20260504090118 | 59 | 129 | 3.0 | 8.0 | 0.00 | 0.00 | 0.00 | 50 | 1002.7 |
| 20260504081614 | 60 | 113 | 2.0 | 7.0 | 0.00 | 0.00 | 0.00 | 48 | 1003.5 |
| 20260504081345 | 60 | 220 | 2.0 | 7.0 | 0.00 | 0.00 | 0.00 | 48 | 1003.6 |
| 20260504080614 | 60 | 111 | 3.0 | 6.0 | 0.00 | 0.00 | 0.00 | 48 | 1003.7 |
| 20260504080112 | 60 | 101 | 3.0 | 6.0 | 0.00 | 0.00 | 0.00 | 48 | 1003.7 |
| 20260504070332 | 61 | 172 | 3.0 | 6.0 | 0.00 | 0.00 | 0.00 | 47 | 1005.1 |
| 20260504045600 | 63 | 105 | 2.0 | 4.0 | 0.00 | 0.00 | 0.00 | 43 | 1006.4 |
| 20260504045101 | 63 | 105 | 2.0 | 4.0 | 0.00 | 0.00 | 0.00 | 43 | 1006.4 |
| 20260504044832 | 63 | 105 | 2.0 | 4.0 | 0.00 | 0.00 | 0.00 | 43 | 1006.6 |
| 20260504044331 | 63 | 60 | 2.0 | 3.0 | 0.00 | 0.00 | 0.00 | 43 | 1006.7 |
| 20260504043601 | 63 | 75 | 1.0 | 3.0 | 0.00 | 0.00 | 0.00 | 43 | 1006.7 |
| 20260504043101 | 63 | 86 | 2.0 | 3.0 | 0.00 | 0.00 | 0.00 | 43 | 1006.8 |
| 20260504042600 | 63 | 68 | 1.0 | 3.0 | 0.00 | 0.00 | 0.00 | 44 | 1006.9 |
| 20260504042101 | 63 | 115 | 1.0 | 3.0 | 0.00 | 0.00 | 0.00 | 43 | 1006.9 |
| 20260504041833 | 63 | 115 | 2.0 | 4.0 | 0.00 | 0.00 | 0.00 | 43 | 1006.9 |
| 20260504041101 | 63 | 85 | 1.0 | 4.0 | 0.00 | 0.00 | 0.00 | 43 | 1007.1 |
| 20260504040601 | 63 | 126 | 2.0 | 4.0 | 0.00 | 0.00 | 0.00 | 44 | 1007.3 |
| 20260504035601 | 63 | 123 | 1.0 | 3.0 | 0.00 | 0.00 | 0.00 | 44 | 1007.4 |
| 20260504035103 | 63 | 78 | 1.0 | 3.0 | 0.00 | 0.00 | 0.00 | 44 | 1007.5 |
| 20260504034602 | 63 | 115 | 1.0 | 2.0 | 0.00 | 0.00 | 0.00 | 43 | 1007.6 |
| 20260504034101 | 63 | 122 | 0.0 | 1.0 | 0.00 | 0.00 | 0.00 | 43 | 1007.5 |
| 20260504033601 | 63 | 104 | 0.0 | 2.0 | 0.00 | 0.00 | 0.00 | 42 | 1007.5 |
| 20260504033101 | 64 | 104 | 1.0 | 2.0 | 0.00 | 0.00 | 0.00 | 42 | 1007.5 |
| 20260504032600 | 64 | 122 | 1.0 | 2.0 | 0.00 | 0.00 | 0.00 | 41 | 1007.6 |
| 20260504032101 | 64 | 105 | 1.0 | 3.0 | 0.00 | 0.00 | 0.00 | 41 | 1007.6 |
| 20260504031601 | 65 | 96 | 2.0 | 3.0 | 0.00 | 0.00 | 0.00 | 41 | 1007.6 |
| 20260504031101 | 64 | 64 | 1.0 | 2.0 | 0.00 | 0.00 | 0.00 | 41 | 1007.5 |
| 20260504030601 | 64 | 82 | 1.0 | 3.0 | 0.00 | 0.00 | 0.00 | 42 | 1007.6 |
| 20260504030101 | 65 | 70 | 1.0 | 3.0 | 0.00 | 0.00 | 0.00 | 42 | 1007.6 |
| 20260504025600 | 64 | 62 | 1.0 | 3.0 | 0.00 | 0.00 | 0.00 | 42 | 1007.6 |
| 20260504025103 | 64 | 121 | 1.0 | 2.0 | 0.00 | 0.00 | 0.00 | 42 | 1007.6 |
| 20260504024558 | 65 | 122 | 0.0 | 2.0 | 0.00 | 0.00 | 0.00 | 41 | 1007.6 |
| 20260504024102 | 65 | 69 | 1.0 | 2.0 | 0.00 | 0.00 | 0.00 | 41 | 1007.7 |
| 20260504024058 | 65 | 69 | 0.0 | 2.0 | 0.00 | 0.00 | 0.00 | 41 | 1007.6 |
| 20260504023101 | 65 | 80 | 0.0 | 3.0 | 0.00 | 0.00 | 0.00 | 43 | 1007.7 |
| 20260504023057 | 65 | 68 | 1.0 | 3.0 | 0.00 | 0.00 | 0.00 | 42 | 1007.7 |
| 20260504022056 | 64 | 72 | 0.0 | 2.0 | 0.00 | 0.00 | 0.00 | 43 | 1007.8 |
| 20260504021556 | 65 | 71 | 0.0 | 1.0 | 0.00 | 0.00 | 0.00 | 44 | 1007.8 |
| 20260504021056 | 66 | 71 | 0.0 | 1.0 | 0.00 | 0.00 | 0.00 | 42 | 1007.8 |
| 20260504020556 | 67 | 71 | 0.0 | 1.0 | 0.00 | 0.00 | 0.00 | 40 | 1007.9 |
| 20260504020055 | 67 | 71 | 0.0 | 1.0 | 0.00 | 0.00 | 0.00 | 39 | 1007.9 |
| 20260504015556 | 67 | 71 | 0.0 | 1.0 | 0.00 | 0.00 | 0.00 | 39 | 1007.8 |
| 20260504015054 | 67 | 71 | 0.0 | 1.0 | 0.00 | 0.00 | 0.00 | 39 | 1007.8 |
| 20260504014823 | 68 | 71 | 0.0 | 2.0 | 0.00 | 0.00 | 0.00 | 40 | 1007.8 |
| 20260504014054 | 68 | 72 | 1.0 | 3.0 | 0.00 | 0.00 | 0.00 | 38 | 1007.8 |
| 20260504014050 | 68 | 71 | 0.0 | 2.0 | 0.00 | 0.00 | 0.00 | 38 | 1007.8 |
| 20260504013050 | 69 | 72 | 1.0 | 3.0 | 0.00 | 0.00 | 0.00 | 37 | 1007.8 |
| 20260504012550 | 69 | 72 | 0.0 | 2.0 | 0.00 | 0.00 | 0.00 | 37 | 1007.8 |
| 20260504012050 | 69 | 46 | 0.0 | 2.0 | 0.00 | 0.00 | 0.00 | 37 | 1007.8 |
| 20260504011544 | 70 | 68 | 0.0 | 1.0 | 0.00 | 0.00 | 0.00 | 37 | 1007.8 |
| 20260504011044 | 70 | 68 | 0.0 | 2.0 | 0.00 | 0.00 | 0.00 | 36 | 1007.8 |
| 20260504010542 | 71 | 350 | 0.0 | 2.0 | 0.00 | 0.00 | 0.00 | 36 | 1007.9 |
| 20260504010042 | 71 | 70 | 1.0 | 4.0 | 0.00 | 0.00 | 0.00 | 36 | 1007.9 |
| 20260504005814 | 71 | 44 | 1.0 | 4.0 | 0.00 | 0.00 | 0.00 | 35 | 1007.9 |
| 20260504005042 | 72 | 27 | 1.0 | 2.0 | 0.00 | 0.00 | 0.00 | 35 | 1008.0 |
| 20260504004541 | 72 | 77 | 1.0 | 3.0 | 0.00 | 0.00 | 0.00 | 34 | 1008.0 |
| 20260504004040 | 73 | 82 | 1.0 | 3.0 | 0.00 | 0.00 | 0.00 | 33 | 1008.1 |
| 20260504003540 | 74 | 83 | 0.0 | 2.0 | 0.00 | 0.00 | 0.00 | 33 | 1008.1 |
| 20260504003040 | 74 | 25 | 0.0 | 2.0 | 0.00 | 0.00 | 0.00 | 33 | 1008.2 |
| 20260504002812 | 75 | 275 | 0.0 | 1.0 | 0.00 | 0.00 | 0.00 | 33 | 1008.2 |
| 20260504002038 | 75 | 275 | 0.0 | 2.0 | 0.00 | 0.00 | 0.00 | 32 | 1008.3 |
| 20260504001537 | 76 | 274 | 1.0 | 3.0 | 0.00 | 0.00 | 0.00 | 31 | 1008.3 |
| 20260504001035 | 76 | 274 | 0.0 | 3.0 | 0.00 | 0.00 | 0.00 | 28 | 1008.4 |
| 20260504000532 | 78 | 330 | 0.0 | 1.0 | 0.00 | 0.00 | 0.00 | 30 | 1008.5 |
| 20260504000032 | 77 | 330 | 1.0 | 3.0 | 0.00 | 0.00 | 0.00 | 30 | 1008.6 |
| 20260503235532 | 77 | 333 | 1.0 | 4.0 | 0.00 | 0.00 | 0.00 | 28 | 1008.6 |
| 20260503235032 | 77 | 328 | 2.0 | 6.0 | 0.00 | 0.00 | 0.00 | 31 | 1008.5 |
| 20260503234530 | 78 | 335 | 2.0 | 6.0 | 0.00 | 0.00 | 0.00 | 28 | 1008.6 |
| 20260503234029 | 79 | 332 | 1.0 | 3.0 | 0.00 | 0.00 | 0.00 | 27 | 1008.6 |
| 20260503233529 | 79 | 332 | 1.0 | 3.0 | 0.00 | 0.00 | 0.00 | 31 | 1008.7 |
| 20260503233029 | 78 | 315 | 1.0 | 3.0 | 0.00 | 0.00 | 0.00 | 29 | 1008.7 |
| 20260503232529 | 78 | 13 | 1.0 | 3.0 | 0.00 | 0.00 | 0.00 | 30 | 1008.7 |
| 20260503232030 | 78 | 253 | 1.0 | 5.0 | 0.00 | 0.00 | 0.00 | 29 | 1008.8 |
| 20260503231800 | 78 | 309 | 1.0 | 5.0 | 0.00 | 0.00 | 0.00 | 32 | 1008.9 |
| 20260503231029 | 78 | 126 | 1.0 | 3.0 | 0.00 | 0.00 | 0.00 | 30 | 1008.5 |
| 20260503230529 | 78 | 47 | 1.0 | 3.0 | 0.00 | 0.00 | 0.00 | 30 | 1008.7 |
| 20260503230030 | 79 | 357 | 1.0 | 3.0 | 0.00 | 0.00 | 0.00 | 29 | 1008.8 |
| 20260503225530 | 79 | 353 | 1.0 | 3.0 | 0.00 | 0.00 | 0.00 | 30 | 1008.8 |
| 20260503225029 | 78 | 153 | 1.0 | 3.0 | 0.00 | 0.00 | 0.00 | 28 | 1008.9 |
| 20260503224529 | 78 | 241 | 1.0 | 3.0 | 0.00 | 0.00 | 0.00 | 29 | 1008.9 |
| 20260503224029 | 78 | 270 | 2.0 | 5.0 | 0.00 | 0.00 | 0.00 | 32 | 1008.9 |
| 20260503223529 | 78 | 261 | 2.0 | 5.0 | 0.00 | 0.00 | 0.00 | 29 | 1009.0 |
| 20260503223028 | 77 | 323 | 1.0 | 5.0 | 0.00 | 0.00 | 0.00 | 30 | 1009.0 |
| 20260503222529 | 77 | 318 | 1.0 | 4.0 | 0.00 | 0.00 | 0.00 | 31 | 1008.9 |
| 20260503222030 | 77 | 34 | 2.0 | 6.0 | 0.00 | 0.00 | 0.00 | 29 | 1009.0 |
| 20260503221535 | 77 | 309 | 2.0 | 5.0 | 0.00 | 0.00 | 0.00 | 29 | 1009.1 |
| 20260503221529 | 78 | 305 | 2.0 | 6.0 | 0.00 | 0.00 | 0.00 | 27 | 1009.0 |